Time;durP1;ratioP1;P1;durP2;ratioP2;P2;SDS_P1;SDS_P2;PMS_P1;PMS_P2;Temp;Humidity;BMP_temperature;BMP_pressure;BME280_temperature;BME280_humidity;BME280_pressure;Samples;Min_cycle;Max_cycle;Signal;HPM_P1;HPM_P2
2023/10/27 00:03:13;;;;;;;15.30;10.17;;;11.00;99.90;;;;;;4727323;29;20246;-85
2023/10/27 00:05:48;;;;;;;15.40;9.80;;;11.10;99.90;;;;;;4791523;29;20203;-84
2023/10/27 00:08:17;;;;;;;16.30;10.27;;;11.00;99.90;;;;;;4790174;29;20633;-84
2023/10/27 00:10:50;;;;;;;14.23;10.30;;;11.20;99.90;;;;;;4826330;29;20269;-76
2023/10/27 00:13:35;;;;;;;16.13;10.30;;;11.10;99.90;;;;;;4859794;29;20270;-77
2023/10/27 00:16:14;;;;;;;14.57;10.33;;;11.10;99.90;;;;;;4790668;29;20204;-83
2023/10/27 00:18:59;;;;;;;14.17;10.20;;;11.10;99.90;;;;;;4750112;30;20225;-83
2023/10/27 00:21:33;;;;;;;14.53;10.63;;;11.10;99.90;;;;;;4722449;30;20206;-83
2023/10/27 00:24:27;;;;;;;14.87;10.43;;;11.00;99.90;;;;;;4750993;30;20567;-84
2023/10/27 00:27:16;;;;;;;13.47;9.87;;;11.10;99.90;;;;;;4750941;30;20206;-85
2023/10/27 00:30:03;;;;;;;30.50;12.63;;;11.10;99.90;;;;;;4751190;30;20265;-84
2023/10/27 00:33:01;;;;;;;13.57;10.00;;;11.10;99.90;;;;;;4843671;29;20239;-84
2023/10/27 00:35:38;;;;;;;15.50;10.60;;;11.10;99.90;;;;;;4829497;29;20205;-83
2023/10/27 00:38:22;;;;;;;14.30;10.30;;;11.10;99.90;;;;;;4843708;29;20220;-85
2023/10/27 00:41:10;;;;;;;14.87;10.30;;;11.10;99.90;;;;;;4881081;29;20615;-84
2023/10/27 00:44:30;;;;;;;17.10;10.70;;;11.20;99.90;;;;;;4891448;29;20273;-84
2023/10/27 00:47:18;;;;;;;;;;;;;;;;;;;;;
2023/10/27 00:50:07;;;;;;;15.47;10.10;;;11.10;99.90;;;;;;4895964;29;20211;-84
2023/10/27 00:52:47;;;;;;;18.20;10.13;;;11.00;99.90;;;;;;4883147;29;20256;-86
2023/10/27 00:55:39;;;;;;;15.97;10.60;;;10.90;99.90;;;;;;4904129;29;20206;-83
2023/10/27 00:58:25;;;;;;;14.53;10.13;;;10.90;99.90;;;;;;4952528;29;20206;-86
2023/10/27 01:01:11;;;;;;;15.83;10.60;;;11.00;99.90;;;;;;4955141;29;20193;-85
2023/10/27 01:03:57;;;;;;;15.47;10.37;;;11.00;99.90;;;;;;4939433;29;20253;-82
2023/10/27 01:11:10;;;;;;;16.27;10.83;;;11.00;99.90;;;;;;4953292;28;20289;-78
2023/10/27 01:14:22;;;;;;;14.43;10.20;;;10.90;99.90;;;;;;4896314;29;20211;-78
2023/10/27 01:17:54;;;;;;;14.67;10.17;;;10.80;99.90;;;;;;4898218;29;20228;-76
2023/10/27 01:20:48;;;;;;;12.83;9.70;;;11.00;99.90;;;;;;4898720;29;20209;-83
2023/10/27 01:23:31;;;;;;;14.27;10.37;;;10.80;99.90;;;;;;4914300;29;20247;-82
2023/10/27 01:26:20;;;;;;;15.20;10.40;;;10.70;99.90;;;;;;4915049;29;20211;-83
2023/10/27 01:29:27;;;;;;;15.43;10.60;;;10.80;99.90;;;;;;4913080;29;20203;-76
2023/10/27 01:32:29;;;;;;;14.07;10.43;;;10.70;99.90;;;;;;4935048;28;20234;-84
2023/10/27 01:35:30;;;;;;;14.50;10.00;;;10.70;99.90;;;;;;4967928;28;20539;-84
2023/10/27 01:38:20;;;;;;;14.90;10.40;;;10.60;99.90;;;;;;4951932;29;20198;-84
2023/10/27 01:41:18;;;;;;;15.80;11.23;;;10.70;99.90;;;;;;4938420;29;20527;-85
2023/10/27 01:44:26;;;;;;;16.80;10.80;;;10.70;99.90;;;;;;4953090;29;20190;-83
2023/10/27 01:47:05;;;;;;;15.20;11.33;;;10.60;99.90;;;;;;4952562;29;20563;-84
2023/10/27 01:50:11;;;;;;;;;;;;;;;;;;;;;
2023/10/27 01:53:02;;;;;;;15.53;11.07;;;10.50;99.90;;;;;;4938431;29;20252;-85
2023/10/27 01:55:49;;;;;;;15.00;10.60;;;10.60;99.90;;;;;;4953102;29;20191;-83
2023/10/27 01:59:51;;;;;;;15.40;10.90;;;10.60;99.90;;;;;;4960960;28;20285;-85
2023/10/27 02:02:33;;;;;;;14.63;10.27;;;10.60;99.90;;;;;;4941215;28;20209;-84
2023/10/27 02:05:37;;;;;;;23.60;11.47;;;10.60;99.90;;;;;;4953002;29;20700;-84
2023/10/27 02:09:32;;;;;;;19.33;10.83;;;10.70;99.90;;;;;;4971529;28;20228;-85
2023/10/27 02:12:15;;;;;;;13.97;10.30;;;10.70;99.90;;;;;;4948044;28;20226;-84
2023/10/27 02:15:18;;;;;;;;;;;;;;;;;;;;;
2023/10/27 02:18:29;;;;;;;14.97;10.50;;;10.70;99.90;;;;;;4879482;29;20323;-85
2023/10/27 02:27:30;;;;;;;20.03;12.00;;;10.50;99.90;;;;;;4858344;29;20245;-85
2023/10/27 02:33:38;;;;;;;15.17;10.80;;;10.60;99.90;;;;;;4839016;29;20277;-85
2023/10/27 02:37:01;;;;;;;16.63;10.77;;;10.60;99.90;;;;;;4852649;29;20223;-86
2023/10/27 02:40:06;;;;;;;15.07;10.23;;;10.60;99.90;;;;;;4857252;29;20219;-86
2023/10/27 02:43:12;;;;;;;13.57;9.27;;;10.60;99.90;;;;;;4857492;29;20213;-84
2023/10/27 02:45:57;;;;;;;;;;;;;;;;;;;;;
2023/10/27 02:48:43;;;;;;;13.10;9.67;;;10.60;99.90;;;;;;4856848;29;20274;-85
2023/10/27 02:52:05;;;;;;;15.27;9.93;;;10.60;99.90;;;;;;4855916;29;20666;-78
2023/10/27 02:55:33;;;;;;;18.37;9.80;;;10.70;99.90;;;;;;4837919;29;20225;-83
2023/10/27 02:58:35;;;;;;;16.70;10.13;;;10.50;99.90;;;;;;4836950;29;20272;-85
2023/10/27 03:02:18;;;;;;;;;;;;;;;;;;;;;
2023/10/27 03:05:44;;;;;;;;;;;;;;;;;;;;;
2023/10/27 03:10:03;;;;;;;;;;;;;;;;;;;;;
2023/10/27 03:13:10;;;;;;;;;;;;;;;;;;;;;
2023/10/27 03:16:37;;;;;;;15.17;9.80;;;10.40;99.90;;;;;;4837534;29;20339;-81
2023/10/27 03:20:10;;;;;;;14.53;10.10;;;10.40;99.90;;;;;;4726663;30;20678;-86
2023/10/27 03:23:16;;;;;;;13.83;9.93;;;10.30;99.90;;;;;;4725072;30;20218;-84
2023/10/27 03:26:24;;;;;;;17.47;9.90;;;10.30;99.90;;;;;;4710049;30;20740;-86
2023/10/27 03:29:33;;;;;;;13.57;9.37;;;10.50;99.90;;;;;;4699725;30;20226;-82
2023/10/27 03:32:24;;;;;;;16.30;9.40;;;10.50;99.90;;;;;;4748636;30;20232;-83
2023/10/27 03:35:34;;;;;;;13.67;9.40;;;10.50;99.90;;;;;;4762656;30;20300;-78
2023/10/27 03:38:41;;;;;;;14.70;9.57;;;10.50;99.90;;;;;;4683008;30;20207;-84
2023/10/27 03:41:59;;;;;;;13.70;9.10;;;10.50;99.90;;;;;;4713310;30;20668;-85
2023/10/27 03:44:59;;;;;;;12.13;9.00;;;10.50;99.90;;;;;;4713152;30;20734;-87
2023/10/27 03:48:27;;;;;;;14.90;9.80;;;10.50;99.90;;;;;;4712377;30;20260;-84
2023/10/27 03:51:26;;;;;;;13.33;8.93;;;10.50;99.90;;;;;;4727650;30;20233;-76
2023/10/27 03:54:15;;;;;;;13.40;8.87;;;10.50;99.90;;;;;;4713056;30;20236;-79
2023/10/27 03:57:55;;;;;;;21.57;10.17;;;10.50;99.90;;;;;;4796921;29;20729;-85
2023/10/27 04:00:52;;;;;;;12.77;9.30;;;10.40;99.90;;;;;;4730388;30;20222;-82
2023/10/27 04:03:53;;;;;;;15.67;9.07;;;10.40;99.90;;;;;;4718076;30;20237;-78
2023/10/27 04:07:01;;;;;;;14.50;9.77;;;10.40;99.90;;;;;;4729780;30;20210;-86
2023/10/27 04:09:38;;;;;;;14.10;9.23;;;10.30;99.90;;;;;;4712591;30;20651;-86
2023/10/27 04:12:46;;;;;;;13.50;9.37;;;10.30;99.90;;;;;;4709498;30;20314;-84
2023/10/27 04:15:47;;;;;;;13.03;9.37;;;10.30;99.90;;;;;;4733398;30;20708;-86
2023/10/27 04:18:25;;;;;;;15.40;9.57;;;10.30;99.90;;;;;;4768363;30;20245;-84
2023/10/27 04:20:53;;;;;;;14.13;9.40;;;10.10;99.90;;;;;;4778395;29;20208;-78
2023/10/27 04:23:49;;;;;;;13.20;9.90;;;10.20;99.90;;;;;;4786463;29;20196;-85
2023/10/27 04:30:36;;;;;;;;;;;;;;;;;;;;;
2023/10/27 04:33:56;;;;;;;14.47;10.10;;;10.00;99.90;;;;;;4779450;30;20324;-85
2023/10/27 04:37:18;;;;;;;14.97;9.83;;;10.10;99.90;;;;;;4784332;29;20660;-86
2023/10/27 04:40:09;;;;;;;15.13;10.43;;;10.00;99.90;;;;;;4858349;29;20212;-82
2023/10/27 04:42:56;;;;;;;17.77;10.77;;;10.00;99.90;;;;;;4859540;29;20213;-79
2023/10/27 04:45:41;;;;;;;15.30;10.23;;;10.00;99.90;;;;;;4859132;29;20538;-85
2023/10/27 04:48:31;;;;;;;16.80;10.40;;;10.00;99.90;;;;;;4800845;29;20250;-77
2023/10/27 04:51:13;;;;;;;15.37;10.70;;;9.90;99.90;;;;;;4804025;29;20647;-76
2023/10/27 04:54:00;;;;;;;15.07;10.20;;;10.00;99.90;;;;;;4789345;29;20300;-83
2023/10/27 04:56:47;;;;;;;16.10;10.60;;;9.90;99.90;;;;;;4803688;29;20586;-83
2023/10/27 04:59:30;;;;;;;14.23;10.00;;;9.90;99.90;;;;;;4735252;30;20214;-85
2023/10/27 05:02:09;;;;;;;15.50;10.07;;;9.80;99.90;;;;;;4749668;30;20218;-80
2023/10/27 05:05:02;;;;;;;18.73;11.07;;;9.90;99.90;;;;;;4750910;30;20542;-85
2023/10/27 05:08:05;;;;;;;14.53;9.97;;;9.90;99.90;;;;;;4738883;30;20243;-80
2023/10/27 05:10:47;;;;;;;17.17;10.73;;;9.80;99.90;;;;;;4746225;30;20213;-84
2023/10/27 05:14:29;;;;;;;16.37;10.67;;;9.80;99.90;;;;;;4743988;30;20236;-86
2023/10/27 05:22:30;;;;;;;;;;;;;;;;;;;;;
2023/10/27 05:25:14;;;;;;;18.27;11.33;;;9.70;99.90;;;;;;4748191;29;20282;-77
2023/10/27 05:28:20;;;;;;;19.33;11.60;;;9.60;99.90;;;;;;4791111;29;20204;-77
2023/10/27 05:31:05;;;;;;;17.43;11.17;;;9.50;99.90;;;;;;4790759;29;20319;-82
2023/10/27 05:34:01;;;;;;;19.00;11.17;;;9.60;99.90;;;;;;4790835;29;20220;-77
2023/10/27 05:36:57;;;;;;;17.57;11.67;;;9.50;99.90;;;;;;4802937;29;20747;-83
2023/10/27 05:40:35;;;;;;;;;;;;;;;;;;;;;
2023/10/27 05:47:28;;;;;;;24.43;12.60;;;9.70;99.90;;;;;;4837376;29;20274;-80
2023/10/27 05:50:19;;;;;;;18.67;11.80;;;9.60;99.90;;;;;;4857239;29;20300;-85
2023/10/27 05:53:11;;;;;;;19.93;12.50;;;9.60;99.90;;;;;;4857749;29;20229;-82
2023/10/27 05:56:18;;;;;;;18.83;12.13;;;9.70;99.90;;;;;;4822194;29;20214;-81
2023/10/27 05:59:07;;;;;;;;;;;;;;;;;;;;;
2023/10/27 06:01:56;;;;;;;23.67;13.00;;;9.80;99.90;;;;;;4913557;29;20259;-84
2023/10/27 06:04:47;;;;;;;19.57;12.27;;;9.80;99.90;;;;;;4898018;29;20207;-73
2023/10/27 06:07:54;;;;;;;18.60;12.43;;;9.80;99.90;;;;;;4900463;29;20218;-83
2023/10/27 06:10:30;;;;;;;20.03;12.47;;;9.80;99.90;;;;;;4862180;29;20224;-76
2023/10/27 06:13:01;;;;;;;19.53;12.90;;;9.70;99.90;;;;;;4852729;29;20662;-76
2023/10/27 06:15:34;;;;;;;20.87;13.10;;;9.70;99.90;;;;;;4883825;29;20214;-82
2023/10/27 06:18:25;;;;;;;19.63;12.93;;;9.80;99.90;;;;;;4861310;29;20265;-84
2023/10/27 06:21:05;;;;;;;20.03;13.30;;;9.90;99.90;;;;;;4876756;29;20212;-84
2023/10/27 06:27:07;;;;;;;18.60;12.73;;;9.80;99.90;;;;;;4832448;29;20216;-84
2023/10/27 06:30:03;;;;;;;21.03;12.67;;;9.90;99.90;;;;;;4838671;29;20226;-83
2023/10/27 06:32:37;;;;;;;21.67;13.17;;;9.80;99.90;;;;;;4838501;29;20264;-82
2023/10/27 06:35:15;;;;;;;20.23;12.57;;;9.90;99.90;;;;;;4838669;29;20289;-77
2023/10/27 06:38:18;;;;;;;21.27;14.10;;;9.90;99.90;;;;;;4823290;29;20565;-76
2023/10/27 06:41:01;;;;;;;22.40;13.17;;;9.70;99.90;;;;;;4810232;29;20205;-76
2023/10/27 06:43:31;;;;;;;21.53;13.87;;;9.70;99.90;;;;;;4838566;29;20266;-83
2023/10/27 06:46:01;;;;;;;26.60;13.83;;;9.70;99.90;;;;;;4836002;29;20226;-81
2023/10/27 06:49:17;;;;;;;21.97;14.57;;;9.70;99.90;;;;;;4840239;29;20222;-81
2023/10/27 06:51:53;;;;;;;21.60;14.03;;;9.70;99.90;;;;;;4856700;29;20741;-77
2023/10/27 06:54:32;;;;;;;20.97;14.20;;;9.70;99.90;;;;;;4856940;29;20236;-82
2023/10/27 06:57:18;;;;;;;22.60;14.10;;;9.80;99.90;;;;;;4843177;29;20210;-83
2023/10/27 07:00:47;;;;;;;22.87;13.87;;;10.00;99.90;;;;;;4873827;29;20216;-83
2023/10/27 07:07:22;;;;;;;21.00;14.33;;;9.90;99.90;;;;;;4997227;23;20244;-84
2023/10/27 07:39:05;;;;;;;25.23;14.17;;;10.50;99.90;;;;;;4750376;23;20251;-84
2023/10/27 07:42:32;;;;;;;21.80;13.13;;;10.70;99.90;;;;;;4990902;28;20204;-83
2023/10/27 08:12:09;;;;;;;14.70;8.83;;;13.10;99.90;;;;;;5526177;23;20286;-83
2023/10/27 08:15:32;;;;;;;16.03;8.87;;;13.20;99.90;;;;;;4964766;28;20282;-81
2023/10/27 08:19:07;;;;;;;;;;;;;;;;;;;;;
2023/10/27 08:22:47;;;;;;;14.87;10.00;;;12.90;99.90;;;;;;4970936;28;20238;-85
2023/10/27 08:52:23;;;;;;;12.80;9.13;;;12.10;99.90;;;;;;5028054;23;20225;-84
2023/10/27 08:56:13;;;;;;;;;;;;;;;;;;;;;
2023/10/27 09:00:00;;;;;;;;;;;;;;;;;;;;;
2023/10/27 09:10:46;;;;;;;12.97;8.57;;;12.80;99.90;;;;;;4899328;29;20196;-77
2023/10/27 11:14:03;;;;;;;15.53;8.97;;;14.70;99.90;;;;;;4759519;30;20235;-84
2023/10/27 11:40:11;;;;;;;6.40;4.40;;;14.60;99.90;;;;;;4856703;24;20247;-82
2023/10/27 11:43:05;;;;;;;;;;;;;;;;;;;;;
2023/10/27 12:47:13;;;;;;;8.40;4.70;;;14.30;99.90;;;;;;5731129;24;20393;-84
2023/10/27 13:05:55;;;;;;;;;;;;;;;;;;;;;
2023/10/27 13:09:02;;;;;;;7.17;5.03;;;14.10;99.90;;;;;;5725072;24;21066;-79
2023/10/27 13:19:21;;;;;;;8.93;5.80;;;14.10;99.90;;;;;;4946736;24;20248;-85
2023/10/27 13:23:19;;;;;;;;;;;;;;;;;;;;;
2023/10/27 13:26:59;;;;;;;9.43;5.53;;;14.10;99.90;;;;;;4675362;30;20391;-83
2023/10/27 13:29:51;;;;;;;14.20;5.73;;;14.00;99.90;;;;;;4670975;30;20366;-87
2023/10/27 13:32:59;;;;;;;9.93;6.10;;;13.90;99.90;;;;;;4724288;30;20234;-81
2023/10/27 13:36:11;;;;;;;8.67;5.77;;;13.90;99.90;;;;;;4727163;30;20260;-80
2023/10/27 13:38:44;;;;;;;7.70;5.63;;;13.90;99.90;;;;;;4717828;30;20215;-86
2023/10/27 13:41:34;;;;;;;8.43;5.37;;;13.80;99.90;;;;;;4732678;30;20674;-82
2023/10/27 13:44:10;;;;;;;8.23;5.40;;;13.80;99.90;;;;;;4726847;30;20284;-80
2023/10/27 13:50:51;;;;;;;18.00;5.83;;;13.70;99.90;;;;;;4712845;30;20747;-83
2023/10/27 13:53:58;;;;;;;13.47;6.30;;;13.70;99.90;;;;;;4697543;30;20696;-81
2023/10/27 14:11:38;;;;;;;8.33;5.13;;;13.20;99.90;;;;;;5609993;24;20518;-81
2023/10/27 14:14:34;;;;;;;8.13;5.90;;;13.20;99.90;;;;;;4781452;30;20295;-84
2023/10/27 15:01:51;;;;;;;15.93;8.00;;;12.20;99.90;;;;;;4816611;24;20612;-82
2023/10/27 15:13:43;;;;;;;11.20;7.00;;;12.00;99.90;;;;;;4734985;30;20645;-85
2023/10/27 15:17:39;;;;;;;15.20;8.13;;;12.10;99.90;;;;;;4649625;30;20303;-84
2023/10/27 15:38:27;;;;;;;;;;;;;;;;;;;;;
2023/10/27 15:42:22;;;;;;;15.53;8.53;;;11.90;99.90;;;;;;4705494;30;20191;-82
2023/10/27 15:50:15;;;;;;;14.37;8.07;;;11.70;99.90;;;;;;4638397;30;20209;-83
2023/10/27 19:02:09;;;;;;;19.40;10.30;;;10.60;99.90;;;;;;5429770;24;20339;-80
2023/10/27 19:27:12;;;;;;;;;;;;;;;;;;;;;
